Time;durP1;ratioP1;P1;durP2;ratioP2;P2;SDS_P1;SDS_P2;PMS_P1;PMS_P2;Temp;Humidity;BMP_temperature;BMP_pressure;BME280_temperature;BME280_humidity;BME280_pressure;Samples;Min_cycle;Max_cycle;Signal;HPM_P1;HPM_P2
2022/12/09 00:02:02;;;;;;;12.73;6.90;;;0.70;99.90;;;;;;5073066;28;20423;-69
2022/12/09 00:04:27;;;;;;;12.40;7.00;;;0.70;99.90;;;;;;5057705;28;20056;-69
2022/12/09 00:06:53;;;;;;;12.32;6.47;;;0.60;99.90;;;;;;5069581;28;20504;-69
2022/12/09 00:09:18;;;;;;;12.25;6.70;;;0.70;99.90;;;;;;5058118;28;20106;-69
2022/12/09 00:11:44;;;;;;;12.15;5.97;;;0.60;99.90;;;;;;5074739;28;20048;-69
2022/12/09 00:14:11;;;;;;;13.98;6.68;;;0.60;99.90;;;;;;5073229;28;20039;-69
2022/12/09 00:16:37;;;;;;;11.10;5.50;;;0.60;99.90;;;;;;5057809;28;20076;-69
2022/12/09 00:19:03;;;;;;;12.15;6.03;;;0.60;99.90;;;;;;5056537;28;20044;-69
2022/12/09 00:21:31;;;;;;;11.52;6.30;;;0.50;99.90;;;;;;5064677;28;20036;-69
2022/12/09 00:23:58;;;;;;;12.40;6.18;;;0.50;99.90;;;;;;5038916;28;20037;-69
2022/12/09 00:26:25;;;;;;;11.50;5.90;;;0.50;99.90;;;;;;5073231;28;20032;-69
2022/12/09 00:28:52;;;;;;;11.57;6.20;;;0.50;99.90;;;;;;5070622;28;20036;-69
2022/12/09 00:31:26;;;;;;;11.10;5.63;;;0.50;99.90;;;;;;5038632;28;20124;-69
2022/12/09 00:33:55;;;;;;;11.95;6.45;;;0.60;99.90;;;;;;5037995;28;20051;-69
2022/12/09 00:36:21;;;;;;;11.98;5.82;;;0.60;99.90;;;;;;5074165;28;20064;-69
2022/12/09 00:38:48;;;;;;;11.95;6.75;;;0.60;99.90;;;;;;5054888;28;20037;-69
2022/12/09 00:41:14;;;;;;;12.20;7.25;;;0.70;99.90;;;;;;5057258;28;20107;-69
2022/12/09 00:43:41;;;;;;;11.35;6.47;;;0.70;99.90;;;;;;5056588;28;20090;-69
2022/12/09 00:46:07;;;;;;;12.55;6.72;;;0.70;99.90;;;;;;5033899;28;20041;-69
2022/12/09 00:48:39;;;;;;;12.02;6.35;;;0.70;99.90;;;;;;5031202;28;20374;-69
2022/12/09 00:51:05;;;;;;;;;;;0.60;99.90;;;;;;5054149;28;20044;-69
2022/12/09 00:53:31;;;;;;;13.25;6.47;;;0.60;99.90;;;;;;5053985;28;20033;-69
2022/12/09 00:55:57;;;;;;;15.32;6.20;;;0.60;99.90;;;;;;5064539;28;20509;-69
2022/12/09 00:58:23;;;;;;;12.77;6.47;;;0.50;99.90;;;;;;5046144;28;20035;-69
2022/12/09 01:00:49;;;;;;;10.57;5.55;;;0.50;99.90;;;;;;5073768;28;20392;-69
2022/12/09 01:03:16;;;;;;;12.25;5.85;;;0.50;99.90;;;;;;5073465;28;20196;-69
2022/12/09 01:05:42;;;;;;;12.55;6.45;;;0.50;99.90;;;;;;5072442;28;20041;-69
2022/12/09 01:08:08;;;;;;;12.55;6.00;;;0.50;99.90;;;;;;5054475;28;20473;-69
2022/12/09 01:10:35;;;;;;;13.40;6.80;;;0.50;99.90;;;;;;5073443;28;20044;-69
2022/12/09 01:13:00;;;;;;;11.68;6.20;;;0.50;99.90;;;;;;5073549;28;20029;-69
2022/12/09 01:15:26;;;;;;;11.48;6.10;;;0.50;99.90;;;;;;5072154;28;20090;-69
2022/12/09 01:17:51;;;;;;;11.27;5.97;;;0.50;99.90;;;;;;5054996;28;20404;-69
2022/12/09 01:20:17;;;;;;;12.38;6.28;;;0.50;99.90;;;;;;5073138;28;20094;-69
2022/12/09 01:22:43;;;;;;;12.50;6.00;;;0.50;99.90;;;;;;5053716;28;20089;-69
2022/12/09 01:25:09;;;;;;;12.82;6.82;;;0.50;99.90;;;;;;5046775;28;20043;-69
2022/12/09 01:27:35;;;;;;;12.82;6.55;;;0.50;99.90;;;;;;5070541;28;20045;-69
2022/12/09 01:30:00;;;;;;;12.50;6.45;;;0.40;99.90;;;;;;5056509;28;20093;-69
2022/12/09 01:32:26;;;;;;;12.32;6.55;;;0.40;99.90;;;;;;5056262;28;20051;-69
2022/12/09 01:34:51;;;;;;;10.60;6.28;;;0.40;99.90;;;;;;5054796;28;20032;-69
2022/12/09 01:37:17;;;;;;;12.82;6.40;;;0.40;99.90;;;;;;5071384;28;20477;-69
2022/12/09 01:39:42;;;;;;;13.25;7.18;;;0.30;99.90;;;;;;5032990;28;20498;-69
2022/12/09 01:42:19;;;;;;;12.68;6.10;;;0.30;99.90;;;;;;5032846;28;20064;-69
2022/12/09 01:45:19;;;;;;;11.80;6.15;;;0.30;99.90;;;;;;5033211;28;20498;-69
2022/12/09 01:47:55;;;;;;;12.63;7.05;;;0.30;99.90;;;;;;5071500;28;20045;-69
2022/12/09 01:50:21;;;;;;;13.48;6.68;;;0.30;99.90;;;;;;5072873;28;20500;-69
2022/12/09 01:52:48;;;;;;;13.13;6.65;;;0.20;99.90;;;;;;5048705;28;20482;-69
2022/12/09 01:55:14;;;;;;;14.30;6.80;;;0.20;99.90;;;;;;5051183;28;20080;-69
2022/12/09 01:57:40;;;;;;;11.57;6.28;;;0.20;99.90;;;;;;5037324;28;20080;-69
2022/12/09 02:00:07;;;;;;;12.52;6.40;;;0.20;99.90;;;;;;5055343;28;20439;-69
2022/12/09 02:02:35;;;;;;;11.05;5.90;;;0.20;99.90;;;;;;5072264;28;20032;-69
2022/12/09 02:05:02;;;;;;;13.43;6.80;;;0.20;99.90;;;;;;5071100;28;20098;-69
2022/12/09 02:07:30;;;;;;;12.88;6.53;;;0.20;99.90;;;;;;5070704;28;20501;-69
2022/12/09 02:09:56;;;;;;;11.80;6.25;;;0.20;99.90;;;;;;5072313;28;20127;-69
2022/12/09 02:12:28;;;;;;;12.40;6.82;;;0.20;99.90;;;;;;5072274;28;20127;-69
2022/12/09 02:15:06;;;;;;;13.15;6.95;;;0.20;99.90;;;;;;5053886;28;20040;-69
2022/12/09 02:17:40;;;;;;;12.35;7.00;;;0.20;99.90;;;;;;5069588;28;20050;-69
2022/12/09 02:20:18;;;;;;;13.27;6.47;;;0.30;99.90;;;;;;5055430;28;20040;-69
2022/12/09 02:22:48;;;;;;;14.23;7.03;;;0.30;99.90;;;;;;5065461;28;20484;-69
2022/12/09 02:25:32;;;;;;;15.05;7.20;;;0.30;99.90;;;;;;5044386;28;20039;-69
2022/12/09 02:28:28;;;;;;;12.52;6.47;;;0.30;99.90;;;;;;5051623;28;20447;-69
2022/12/09 02:31:17;;;;;;;11.70;5.50;;;0.30;99.90;;;;;;5035644;28;20041;-69
2022/12/09 02:34:08;;;;;;;10.80;5.95;;;0.30;99.90;;;;;;5034834;28;20041;-69
2022/12/09 02:37:00;;;;;;;13.25;6.10;;;0.30;99.90;;;;;;5051857;28;20103;-69
2022/12/09 02:39:53;;;;;;;13.00;6.78;;;0.30;99.90;;;;;;5053900;28;20334;-69
2022/12/09 02:42:22;;;;;;;13.55;7.45;;;0.30;99.90;;;;;;5050195;28;20115;-69
2022/12/09 02:44:49;;;;;;;14.93;7.80;;;0.40;99.90;;;;;;5030302;28;20041;-69
2022/12/09 02:47:19;;;;;;;14.32;7.80;;;0.40;99.90;;;;;;5057395;28;20497;-69
2022/12/09 02:49:49;;;;;;;12.68;6.55;;;0.40;99.90;;;;;;5033476;28;20128;-69
2022/12/09 02:52:16;;;;;;;12.77;6.90;;;0.30;99.90;;;;;;5050913;28;20052;-69
2022/12/09 02:54:43;;;;;;;13.90;7.32;;;0.40;99.90;;;;;;5035130;28;20036;-69
2022/12/09 02:57:17;;;;;;;13.77;7.35;;;0.40;99.90;;;;;;5032572;28;20076;-69
2022/12/09 02:59:43;;;;;;;12.27;6.85;;;0.40;99.90;;;;;;5034163;28;20117;-69
2022/12/09 03:02:30;;;;;;;13.27;7.43;;;0.40;99.90;;;;;;5041795;28;20124;-69
2022/12/09 03:05:05;;;;;;;12.38;6.97;;;0.40;99.90;;;;;;5033781;28;20174;-69
2022/12/09 03:07:58;;;;;;;11.85;6.03;;;0.40;99.90;;;;;;5052377;28;20037;-69
2022/12/09 03:10:37;;;;;;;13.85;6.60;;;0.40;99.90;;;;;;5038173;28;20080;-69
2022/12/09 03:13:17;;;;;;;12.38;6.95;;;0.40;99.90;;;;;;5031213;28;20045;-69
2022/12/09 03:15:49;;;;;;;12.60;6.45;;;0.40;99.90;;;;;;5037951;28;20049;-69
2022/12/09 03:18:18;;;;;;;12.15;6.28;;;0.40;99.90;;;;;;5059588;28;20044;-69
2022/12/09 03:20:47;;;;;;;12.38;6.57;;;0.40;99.90;;;;;;5048487;28;20029;-69
2022/12/09 03:23:16;;;;;;;11.63;6.32;;;0.40;99.90;;;;;;5070190;28;20093;-69
2022/12/09 03:25:45;;;;;;;12.18;6.57;;;0.40;99.90;;;;;;5046092;28;20037;-69
2022/12/09 03:28:23;;;;;;;14.38;7.85;;;0.40;99.90;;;;;;5033907;28;20041;-69
2022/12/09 03:30:52;;;;;;;15.60;8.35;;;0.50;99.90;;;;;;5062197;28;20036;-69
2022/12/09 03:33:20;;;;;;;14.50;8.35;;;0.40;99.90;;;;;;5071428;28;20135;-69
2022/12/09 03:35:52;;;;;;;15.48;8.32;;;0.30;99.90;;;;;;5065812;28;20048;-69
2022/12/09 03:38:19;;;;;;;;;;;0.30;99.90;;;;;;5041275;28;20044;-69
2022/12/09 03:40:53;;;;;;;12.80;6.72;;;0.30;99.90;;;;;;5064917;28;19916;-69
2022/12/09 03:43:23;;;;;;;14.48;7.18;;;0.30;99.90;;;;;;5053472;28;20484;-69
2022/12/09 03:45:52;;;;;;;12.80;7.35;;;0.30;99.90;;;;;;5039468;28;20037;-69
2022/12/09 03:48:18;;;;;;;12.93;6.80;;;0.30;99.90;;;;;;5063036;28;20048;-69
2022/12/09 03:51:00;;;;;;;14.10;7.18;;;0.30;99.90;;;;;;5031959;28;20037;-69
2022/12/09 03:53:42;;;;;;;13.90;7.13;;;0.30;99.90;;;;;;5053633;28;20124;-69
2022/12/09 03:56:17;;;;;;;13.55;7.65;;;0.40;99.90;;;;;;5049022;28;20060;-69
2022/12/09 03:58:45;;;;;;;15.38;7.82;;;0.40;99.90;;;;;;5077828;28;20040;-69
2022/12/09 04:01:11;;;;;;;15.18;8.18;;;0.40;99.90;;;;;;5023511;28;20059;-69
2022/12/09 04:03:37;;;;;;;14.80;8.40;;;0.30;99.90;;;;;;5026243;28;20052;-69
2022/12/09 04:06:03;;;;;;;14.25;7.65;;;0.30;99.90;;;;;;5037288;28;20528;-69
2022/12/09 04:08:29;;;;;;;15.80;8.55;;;0.30;99.90;;;;;;5037877;28;20068;-69
2022/12/09 04:10:54;;;;;;;15.70;7.85;;;0.30;99.90;;;;;;5035110;28;20055;-69
2022/12/09 04:13:20;;;;;;;14.48;6.85;;;0.20;99.90;;;;;;5044891;28;20493;-69
2022/12/09 04:15:45;;;;;;;16.23;7.72;;;0.20;99.90;;;;;;5030927;28;20067;-69
2022/12/09 04:18:11;;;;;;;13.07;7.22;;;0.20;99.90;;;;;;5037940;28;20049;-69
2022/12/09 04:20:36;;;;;;;15.60;7.75;;;0.20;99.90;;;;;;5060183;28;20041;-69
2022/12/09 04:23:02;;;;;;;14.10;7.93;;;0.20;99.90;;;;;;5056083;28;20040;-69
2022/12/09 04:25:27;;;;;;;14.50;8.00;;;0.20;99.90;;;;;;5043500;28;20045;-69
2022/12/09 04:27:53;;;;;;;15.30;8.60;;;0.10;99.90;;;;;;5065447;28;20060;-69
2022/12/09 04:30:19;;;;;;;14.93;8.50;;;0.10;99.90;;;;;;5065828;28;20044;-69
2022/12/09 04:32:44;;;;;;;13.93;7.32;;;0.10;99.90;;;;;;5056276;28;20044;-69
2022/12/09 04:35:10;;;;;;;15.10;8.23;;;0.10;99.90;;;;;;5042722;28;20102;-69
2022/12/09 04:37:36;;;;;;;14.68;7.32;;;0.10;99.90;;;;;;5053259;28;20041;-69
2022/12/09 04:40:06;;;;;;;15.35;8.27;;;0.10;99.90;;;;;;5050622;28;20519;-69
2022/12/09 04:42:32;;;;;;;12.80;6.95;;;0.10;99.90;;;;;;5050562;28;20081;-69
2022/12/09 04:44:58;;;;;;;13.05;6.80;;;0.10;99.90;;;;;;5053518;28;20037;-69
2022/12/09 04:47:23;;;;;;;15.43;7.18;;;0.10;99.90;;;;;;5037070;28;20043;-69
2022/12/09 04:49:49;;;;;;;14.93;7.95;;;0.10;99.90;;;;;;5036574;28;20386;-69
2022/12/09 04:52:20;;;;;;;16.13;8.40;;;0.10;99.90;;;;;;5046249;28;20032;-69
2022/12/09 04:54:47;;;;;;;16.38;8.65;;;0.20;99.90;;;;;;5046300;28;20397;-69
2022/12/09 04:57:13;;;;;;;14.70;7.85;;;0.20;99.90;;;;;;5054830;28;20451;-69
2022/12/09 04:59:38;;;;;;;17.40;8.80;;;0.20;99.90;;;;;;5063292;28;20041;-69
2022/12/09 05:02:04;;;;;;;15.82;7.15;;;0.30;99.90;;;;;;5049763;28;20414;-69
2022/12/09 05:04:29;;;;;;;13.57;6.97;;;0.20;99.90;;;;;;5055240;28;20068;-69
2022/12/09 05:06:55;;;;;;;11.73;6.35;;;0.10;99.90;;;;;;5051678;28;20068;-69
2022/12/09 05:09:20;;;;;;;10.77;5.82;;;0.10;99.90;;;;;;5046145;28;20490;-69
2022/12/09 05:11:46;;;;;;;13.32;6.78;;;0.00;99.90;;;;;;5065382;28;20041;-69
2022/12/09 05:14:12;;;;;;;12.45;6.43;;;-0.10;99.90;;;;;;5051661;28;20037;-69
2022/12/09 05:16:37;;;;;;;13.30;6.88;;;-0.20;99.90;;;;;;5053082;28;20041;-69
2022/12/09 05:19:03;;;;;;;14.38;7.55;;;-0.30;99.90;;;;;;5034429;28;20425;-69
2022/12/09 05:21:29;;;;;;;15.02;8.73;;;-0.40;99.90;;;;;;5052912;28;20033;-69
2022/12/09 05:23:54;;;;;;;14.27;7.07;;;-0.50;99.90;;;;;;5069851;28;20443;-69
2022/12/09 05:26:21;;;;;;;12.52;6.90;;;-0.50;99.90;;;;;;5068633;28;20037;-69
2022/12/09 05:28:47;;;;;;;13.63;6.90;;;-0.60;99.90;;;;;;5046194;28;20409;-69
2022/12/09 05:31:16;;;;;;;11.77;5.97;;;-0.60;99.90;;;;;;5066673;28;20401;-69
2022/12/09 05:33:42;;;;;;;15.15;7.55;;;-0.50;99.90;;;;;;5050498;28;20166;-69
2022/12/09 05:36:13;;;;;;;13.40;6.68;;;-0.50;99.90;;;;;;5036162;28;20037;-69
2022/12/09 05:38:39;;;;;;;13.40;7.43;;;-0.50;99.90;;;;;;5035361;28;20068;-69
2022/12/09 05:41:05;;;;;;;14.10;7.53;;;-0.50;99.90;;;;;;5036480;28;20036;-69
2022/12/09 05:43:32;;;;;;;15.07;7.80;;;-0.60;99.90;;;;;;5034491;28;20044;-69
2022/12/09 05:45:58;;;;;;;13.13;7.40;;;-0.60;99.90;;;;;;5052935;28;20477;-69
2022/12/09 05:48:24;;;;;;;14.68;7.80;;;-0.60;99.90;;;;;;5034147;28;20040;-69
2022/12/09 05:50:57;;;;;;;14.52;7.47;;;-0.60;99.90;;;;;;5036274;28;20045;-69
2022/12/09 05:53:23;;;;;;;14.13;6.88;;;-0.50;99.90;;;;;;5034181;28;20039;-69
2022/12/09 05:55:49;;;;;;;14.75;7.82;;;-0.50;99.90;;;;;;5051829;28;20496;-69
2022/12/09 05:58:15;;;;;;;16.23;8.25;;;-0.50;99.90;;;;;;5052782;28;20052;-69
2022/12/09 06:00:43;;;;;;;14.13;7.10;;;-0.50;99.90;;;;;;5036332;28;20041;-70
2022/12/09 06:03:12;;;;;;;14.43;7.60;;;-0.50;99.90;;;;;;5032715;28;20107;-70
2022/12/09 06:05:38;;;;;;;16.95;9.52;;;-0.60;99.90;;;;;;5044642;28;20497;-70
2022/12/09 06:08:04;;;;;;;16.10;9.65;;;-0.60;99.90;;;;;;5036042;28;20033;-70
2022/12/09 06:10:30;;;;;;;16.10;9.13;;;-0.60;99.90;;;;;;5034742;28;20044;-70
2022/12/09 06:12:56;;;;;;;16.25;8.93;;;-0.60;99.90;;;;;;5051965;28;20076;-70
2022/12/09 06:15:23;;;;;;;15.55;9.35;;;-0.60;99.90;;;;;;5051622;28;20037;-70
2022/12/09 06:17:49;;;;;;;18.23;9.55;;;-0.60;99.90;;;;;;5035471;28;20040;-70
2022/12/09 06:20:15;;;;;;;16.00;9.05;;;-0.60;99.90;;;;;;5034359;28;20041;-68
2022/12/09 06:22:41;;;;;;;15.63;8.80;;;-0.60;99.90;;;;;;5035775;28;20033;-70
2022/12/09 06:25:07;;;;;;;17.08;8.73;;;-0.60;99.90;;;;;;5050068;28;20083;-68
2022/12/09 06:27:32;;;;;;;15.48;8.27;;;-0.60;99.90;;;;;;5051787;28;20044;-68
2022/12/09 06:29:58;;;;;;;17.60;8.32;;;-0.60;99.90;;;;;;5051340;28;20505;-67
2022/12/09 06:32:23;;;;;;;15.15;7.97;;;-0.60;99.90;;;;;;5053367;28;20038;-68
2022/12/09 06:34:49;;;;;;;14.15;7.60;;;-0.60;99.90;;;;;;5057932;28;20115;-68
2022/12/09 06:37:15;;;;;;;16.45;8.38;;;-0.60;99.90;;;;;;5027512;28;20041;-68
2022/12/09 06:39:41;;;;;;;12.88;7.13;;;-0.60;99.90;;;;;;5032328;28;20077;-68
2022/12/09 06:42:07;;;;;;;15.90;7.60;;;-0.60;99.90;;;;;;5042694;28;20516;-68
2022/12/09 06:44:32;;;;;;;14.38;7.78;;;-0.70;99.90;;;;;;5055182;28;20032;-68
2022/12/09 06:46:58;;;;;;;13.27;7.55;;;-0.60;99.90;;;;;;5050514;28;20036;-68
2022/12/09 06:49:23;;;;;;;14.05;8.05;;;-0.60;99.90;;;;;;5049809;28;20095;-68
2022/12/09 06:51:49;;;;;;;16.15;8.65;;;-0.70;99.90;;;;;;5051163;28;20048;-67
2022/12/09 06:54:15;;;;;;;16.45;8.68;;;-0.60;99.90;;;;;;5053932;28;20086;-68
2022/12/09 06:56:40;;;;;;;18.13;8.75;;;-0.60;99.90;;;;;;5046909;28;20037;-68
2022/12/09 06:59:10;;;;;;;15.50;8.30;;;-0.70;99.90;;;;;;5041456;28;20051;-67
2022/12/09 07:01:37;;;;;;;14.63;8.07;;;-0.70;99.90;;;;;;5045480;28;20068;-67
2022/12/09 07:04:03;;;;;;;14.05;8.10;;;-0.70;99.90;;;;;;5045645;28;20045;-68
2022/12/09 07:06:37;;;;;;;15.75;8.23;;;-0.60;99.90;;;;;;5052925;28;20086;-68
2022/12/09 07:09:17;;;;;;;19.27;9.27;;;-0.70;99.90;;;;;;5036007;28;20444;-68
2022/12/09 07:11:44;;;;;;;23.42;11.55;;;-0.60;99.90;;;;;;5060059;28;20089;-68
2022/12/09 07:14:10;;;;;;;18.38;9.27;;;-0.50;99.90;;;;;;5066260;28;20041;-67
2022/12/09 07:16:37;;;;;;;15.70;7.90;;;-0.50;99.90;;;;;;5046424;28;20123;-68
2022/12/09 07:19:03;;;;;;;16.58;8.77;;;-0.50;99.90;;;;;;5068636;28;20111;-68
2022/12/09 07:21:28;;;;;;;18.35;9.25;;;-0.40;99.90;;;;;;5046818;28;20124;-68
2022/12/09 07:23:57;;;;;;;16.65;9.13;;;-0.40;99.90;;;;;;5055095;28;20401;-68
2022/12/09 07:26:23;;;;;;;17.98;9.43;;;-0.40;99.90;;;;;;5056560;28;20040;-68
2022/12/09 07:28:49;;;;;;;15.65;8.30;;;-0.40;99.90;;;;;;5023950;28;20480;-68
2022/12/09 07:31:24;;;;;;;16.65;8.45;;;-0.50;99.90;;;;;;5042176;28;20040;-68
2022/12/09 07:33:50;;;;;;;17.42;8.98;;;-0.50;99.90;;;;;;5053600;28;20102;-68
2022/12/09 07:36:16;;;;;;;17.75;9.77;;;-0.50;99.90;;;;;;5058459;28;20051;-68
2022/12/09 07:38:42;;;;;;;19.90;10.13;;;-0.50;99.90;;;;;;5032130;28;20033;-68
2022/12/09 07:41:16;;;;;;;17.60;9.57;;;-0.50;99.90;;;;;;5037319;28;20492;-68
2022/12/09 07:43:42;;;;;;;15.50;8.73;;;-0.50;99.90;;;;;;5060920;28;20055;-68
2022/12/09 07:46:08;;;;;;;19.20;10.68;;;-0.50;99.90;;;;;;5035328;28;20190;-68
2022/12/09 07:48:33;;;;;;;19.67;10.32;;;-0.50;99.90;;;;;;5054708;28;20505;-68
2022/12/09 07:51:00;;;;;;;15.70;9.02;;;-0.60;99.90;;;;;;5036303;28;20044;-68
2022/12/09 07:53:26;;;;;;;19.33;10.25;;;-0.60;99.90;;;;;;5054325;28;20094;-68
2022/12/09 07:55:51;;;;;;;18.42;9.93;;;-0.70;99.90;;;;;;5039194;28;20041;-68
2022/12/09 07:58:17;;;;;;;17.10;9.73;;;-0.70;99.90;;;;;;5059799;28;20039;-68
2022/12/09 08:00:43;;;;;;;20.17;12.73;;;-0.80;99.90;;;;;;5039700;28;20132;-68
2022/12/09 08:03:11;;;;;;;20.38;11.48;;;-0.80;99.90;;;;;;5068777;28;20041;-68
2022/12/09 08:05:44;;;;;;;18.70;10.30;;;-0.70;99.90;;;;;;5036343;28;20083;-68
2022/12/09 08:08:09;;;;;;;20.80;10.65;;;-0.60;99.90;;;;;;5036709;28;20128;-68
2022/12/09 08:10:35;;;;;;;20.67;10.65;;;-0.60;99.90;;;;;;5058102;28;20123;-68
2022/12/09 08:13:01;;;;;;;22.55;10.55;;;-0.50;99.90;;;;;;5053004;28;20048;-68
2022/12/09 08:15:26;;;;;;;20.85;10.65;;;-0.40;99.90;;;;;;5056390;28;20048;-68
2022/12/09 08:17:52;;;;;;;19.38;10.18;;;-0.40;99.90;;;;;;5042150;28;20048;-68
2022/12/09 08:20:17;;;;;;;22.05;11.27;;;-0.40;99.90;;;;;;5042255;28;20515;-68
2022/12/09 08:22:43;;;;;;;22.02;11.70;;;-0.40;99.90;;;;;;5054894;28;20591;-68
2022/12/09 08:25:09;;;;;;;21.40;12.35;;;-0.40;99.90;;;;;;5054037;28;20041;-68
2022/12/09 08:27:35;;;;;;;17.90;9.55;;;-0.40;99.90;;;;;;5058904;28;20562;-68
2022/12/09 08:30:00;;;;;;;21.05;11.85;;;-0.50;99.90;;;;;;5041089;28;20041;-68
2022/12/09 08:32:26;;;;;;;20.45;10.60;;;-0.50;99.90;;;;;;5055752;28;20124;-68
2022/12/09 08:34:51;;;;;;;18.20;10.05;;;-0.60;99.90;;;;;;5037637;28;20412;-68
2022/12/09 08:37:17;;;;;;;19.67;10.32;;;-0.60;99.90;;;;;;5036274;28;20048;-68
2022/12/09 08:39:42;;;;;;;19.92;9.85;;;-0.60;99.90;;;;;;5049717;28;20040;-68
2022/12/09 08:42:08;;;;;;;17.65;10.00;;;-0.60;99.90;;;;;;5055134;28;20501;-68
2022/12/09 08:44:33;;;;;;;21.75;11.20;;;-0.50;99.90;;;;;;5061825;28;20087;-68
2022/12/09 08:46:59;;;;;;;21.77;10.65;;;-0.50;99.90;;;;;;5072779;28;20044;-69
2022/12/09 08:49:26;;;;;;;18.33;10.48;;;-0.60;99.90;;;;;;5055865;28;20080;-69
2022/12/09 08:51:52;;;;;;;20.83;10.25;;;-0.60;99.90;;;;;;5058778;28;20105;-69
2022/12/09 08:54:18;;;;;;;18.30;10.23;;;-0.60;99.90;;;;;;5057180;28;20485;-69
2022/12/09 08:56:45;;;;;;;20.80;10.98;;;-0.60;99.90;;;;;;5035093;28;20116;-69
2022/12/09 08:59:10;;;;;;;21.20;10.23;;;-0.50;99.90;;;;;;5037971;28;20104;-69
2022/12/09 09:01:36;;;;;;;20.45;10.02;;;-0.50;99.90;;;;;;5068478;28;20102;-69
2022/12/09 09:04:08;;;;;;;20.02;10.73;;;-0.50;99.90;;;;;;5062481;28;20057;-69
2022/12/09 09:06:34;;;;;;;20.23;10.27;;;-0.50;99.90;;;;;;5064507;28;20045;-69
2022/12/09 09:09:00;;;;;;;20.60;11.60;;;-0.50;99.90;;;;;;5072038;28;20412;-69
2022/12/09 09:11:26;;;;;;;23.33;12.70;;;-0.40;99.90;;;;;;5057719;28;20044;-70
2022/12/09 09:13:52;;;;;;;23.60;13.10;;;-0.30;99.90;;;;;;5050114;28;20036;-69
2022/12/09 09:16:20;;;;;;;22.90;12.25;;;-0.10;99.90;;;;;;5047225;28;20045;-69
2022/12/09 09:18:46;;;;;;;24.70;12.93;;;0.00;99.90;;;;;;5032962;28;20489;-69
2022/12/09 09:21:14;;;;;;;26.63;14.85;;;0.10;99.90;;;;;;5034795;28;20040;-69
2022/12/09 09:23:40;;;;;;;29.20;13.88;;;0.20;99.90;;;;;;5060655;28;20119;-69
2022/12/09 09:26:14;;;;;;;28.60;14.90;;;0.20;99.90;;;;;;5067300;28;20495;-69
2022/12/09 09:28:40;;;;;;;28.92;15.88;;;0.40;99.90;;;;;;5053578;28;20037;-69
2022/12/09 09:31:09;;;;;;;28.85;15.80;;;0.40;99.90;;;;;;5050232;28;20040;-70
2022/12/09 09:33:35;;;;;;;28.70;15.80;;;0.40;99.90;;;;;;5052314;28;20084;-68
2022/12/09 09:36:02;;;;;;;27.52;15.38;;;0.40;99.90;;;;;;5071262;28;20056;-68
2022/12/09 09:38:28;;;;;;;29.38;14.55;;;0.50;99.90;;;;;;5068382;28;20059;-68
2022/12/09 09:40:54;;;;;;;25.08;13.27;;;0.60;99.90;;;;;;5072843;28;20036;-68
2022/12/09 09:43:25;;;;;;;24.77;13.82;;;0.60;99.90;;;;;;5071438;28;20094;-69
2022/12/09 09:45:54;;;;;;;29.73;16.65;;;0.60;99.90;;;;;;5047293;28;20036;-69
2022/12/09 09:48:31;;;;;;;28.98;15.77;;;0.60;99.90;;;;;;5051633;28;20174;-69
2022/12/09 09:51:05;;;;;;;28.63;15.07;;;0.60;99.90;;;;;;5059240;28;20116;-69
2022/12/09 09:53:33;;;;;;;27.00;13.80;;;0.80;99.90;;;;;;5053991;28;20527;-69
2022/12/09 09:56:13;;;;;;;26.67;14.77;;;0.80;99.90;;;;;;5055588;28;20079;-69
2022/12/09 09:58:44;;;;;;;32.95;14.55;;;0.90;99.90;;;;;;5041644;28;20567;-69
2022/12/09 10:01:16;;;;;;;28.65;14.38;;;1.00;99.90;;;;;;5049681;28;20041;-69
2022/12/09 10:04:05;;;;;;;27.23;15.55;;;0.90;99.90;;;;;;5047730;28;20509;-69
2022/12/09 10:06:58;;;;;;;26.17;15.43;;;0.80;99.90;;;;;;5065042;28;20059;-69
2022/12/09 10:09:45;;;;;;;25.60;14.27;;;0.90;99.90;;;;;;5033527;28;20128;-69
2022/12/09 10:12:38;;;;;;;26.48;14.00;;;0.90;99.90;;;;;;5051504;28;20132;-69
2022/12/09 10:15:17;;;;;;;28.23;14.43;;;1.00;99.90;;;;;;5043954;28;20049;-69
2022/12/09 10:17:54;;;;;;;28.88;13.82;;;1.00;99.90;;;;;;5057394;28;20040;-69
2022/12/09 10:20:27;;;;;;;26.75;15.02;;;1.10;99.90;;;;;;5050132;28;20048;-69
2022/12/09 10:22:59;;;;;;;29.42;15.13;;;1.00;99.90;;;;;;5033768;28;20178;-71
2022/12/09 10:25:27;;;;;;;25.20;13.60;;;0.90;99.90;;;;;;5066520;28;20052;-70
2022/12/09 10:28:07;;;;;;;28.48;15.07;;;1.00;99.90;;;;;;5023239;28;20052;-69
2022/12/09 10:30:33;;;;;;;26.42;13.65;;;1.10;99.90;;;;;;5034757;28;20041;-68
2022/12/09 10:32:59;;;;;;;29.30;15.07;;;1.10;99.90;;;;;;5031408;28;20040;-68
2022/12/09 10:35:27;;;;;;;26.35;14.57;;;1.10;99.90;;;;;;5060552;28;20492;-73
2022/12/09 10:37:55;;;;;;;28.25;14.95;;;1.00;99.90;;;;;;5053366;28;20055;-72
2022/12/09 10:40:35;;;;;;;29.05;15.80;;;1.00;99.90;;;;;;5071486;28;20044;-70
2022/12/09 10:43:42;;;;;;;28.63;15.38;;;1.00;99.90;;;;;;5060144;28;20041;-71
2022/12/09 10:46:12;;;;;;;28.83;14.90;;;1.10;99.90;;;;;;5042940;28;20071;-69
2022/12/09 10:49:02;;;;;;;28.45;15.15;;;1.00;99.90;;;;;;5066742;28;20041;-71
2022/12/09 10:51:35;;;;;;;30.90;15.68;;;1.10;99.90;;;;;;5048914;28;20041;-69
2022/12/09 10:54:04;;;;;;;25.98;14.45;;;1.10;99.90;;;;;;5044165;28;20067;-69
2022/12/09 10:56:35;;;;;;;28.65;15.25;;;1.00;99.90;;;;;;5066681;28;20069;-69
2022/12/09 10:59:22;;;;;;;26.02;14.38;;;1.20;99.90;;;;;;5059468;28;20492;-72
2022/12/09 11:01:54;;;;;;;30.42;14.80;;;1.30;99.90;;;;;;5047577;28;20305;-70
2022/12/09 11:04:23;;;;;;;25.65;13.82;;;1.20;99.90;;;;;;5015030;28;20057;-70
2022/12/09 11:06:50;;;;;;;25.35;13.43;;;1.20;99.90;;;;;;5046045;28;20049;-70
2022/12/09 11:09:25;;;;;;;27.65;14.65;;;1.20;99.90;;;;;;5030376;28;20041;-70
2022/12/09 11:11:51;;;;;;;26.75;14.75;;;1.20;99.90;;;;;;5036321;28;20052;-70
2022/12/09 11:14:22;;;;;;;26.25;14.07;;;1.20;99.90;;;;;;5031410;28;20041;-71
2022/12/09 11:16:53;;;;;;;26.30;14.97;;;1.10;99.90;;;;;;5050287;28;20087;-69
2022/12/09 11:19:32;;;;;;;25.92;13.88;;;1.00;99.90;;;;;;5051354;28;20052;-71
2022/12/09 11:22:13;;;;;;;28.10;15.77;;;1.10;99.90;;;;;;5066527;28;20489;-70
2022/12/09 11:24:41;;;;;;;28.58;16.35;;;1.10;99.90;;;;;;5044276;28;20485;-69
2022/12/09 11:27:36;;;;;;;29.13;16.50;;;1.10;99.90;;;;;;5032979;28;20045;-70
2022/12/09 11:30:12;;;;;;;23.77;12.63;;;1.10;99.90;;;;;;4962312;28;20051;-71
2022/12/09 11:32:55;;;;;;;28.20;14.73;;;1.30;99.90;;;;;;5066715;28;20044;-71
2022/12/09 11:35:26;;;;;;;27.67;15.93;;;1.20;99.90;;;;;;5065759;28;20061;-71
2022/12/09 11:37:52;;;;;;;27.55;15.20;;;1.20;99.90;;;;;;5037579;28;20045;-71
2022/12/09 11:40:19;;;;;;;25.85;14.65;;;1.20;99.90;;;;;;5040635;28;20370;-71
2022/12/09 11:42:51;;;;;;;26.35;14.20;;;1.20;99.90;;;;;;5066865;28;20033;-72
2022/12/09 11:45:38;;;;;;;27.77;14.10;;;1.30;99.90;;;;;;5070927;28;20441;-69
2022/12/09 11:48:28;;;;;;;26.05;15.00;;;1.50;99.90;;;;;;5053269;28;20044;-69
2022/12/09 11:50:54;;;;;;;28.52;15.15;;;1.40;99.90;;;;;;5052250;28;20378;-69
2022/12/09 11:53:26;;;;;;;27.88;15.25;;;1.30;99.90;;;;;;5036026;28;20036;-69
2022/12/09 11:55:58;;;;;;;28.42;15.25;;;1.40;99.90;;;;;;5049630;28;20033;-69
2022/12/09 11:58:26;;;;;;;;;;;1.30;99.90;;;;;;5066055;28;20036;-70
2022/12/09 12:00:59;;;;;;;27.17;14.90;;;1.40;99.90;;;;;;5038601;28;20003;-69
2022/12/09 12:03:38;;;;;;;28.23;14.07;;;1.40;99.90;;;;;;5069147;28;20140;-71
2022/12/09 12:06:16;;;;;;;27.52;15.05;;;1.30;99.90;;;;;;5073550;28;20036;-70
2022/12/09 12:08:47;;;;;;;28.17;15.38;;;1.30;99.90;;;;;;5052781;28;20128;-70
2022/12/09 12:11:27;;;;;;;29.63;16.23;;;1.30;99.90;;;;;;5054937;28;20040;-71
2022/12/09 12:14:05;;;;;;;24.63;14.07;;;1.30;99.90;;;;;;5040765;28;20563;-73
2022/12/09 12:16:42;;;;;;;25.50;14.45;;;1.30;99.90;;;;;;5054014;28;20115;-71
2022/12/09 12:19:12;;;;;;;31.35;16.25;;;1.20;99.90;;;;;;5057528;28;20501;-71
2022/12/09 12:21:44;;;;;;;27.17;14.63;;;1.10;99.90;;;;;;5054886;28;20501;-71
2022/12/09 12:24:34;;;;;;;27.30;14.55;;;1.10;99.90;;;;;;5056168;28;20028;-71
2022/12/09 12:27:32;;;;;;;30.95;16.90;;;1.20;99.90;;;;;;5060435;28;20029;-71
2022/12/09 12:30:07;;;;;;;29.73;16.95;;;1.10;99.90;;;;;;5013497;28;20175;-69
2022/12/09 12:33:07;;;;;;;31.38;16.55;;;1.10;99.90;;;;;;5054107;28;20047;-69
2022/12/09 12:35:44;;;;;;;27.13;14.52;;;1.10;99.90;;;;;;5052743;28;20045;-70
2022/12/09 12:38:12;;;;;;;27.23;14.55;;;1.20;99.90;;;;;;5046431;28;20439;-71
2022/12/09 12:41:01;;;;;;;28.33;15.70;;;1.30;99.90;;;;;;5031659;28;20041;-69
2022/12/09 12:47:11;;;;;;;27.98;15.18;;;1.50;99.90;;;;;;5033525;28;20502;-70
2022/12/09 12:50:00;;;;;;;29.75;15.80;;;1.50;99.90;;;;;;5033180;28;20505;-70
2022/12/09 12:53:01;;;;;;;27.95;15.02;;;1.40;99.90;;;;;;5054928;28;20570;-70
2022/12/09 12:56:01;;;;;;;28.40;15.80;;;1.40;99.90;;;;;;4996671;28;20163;-70
2022/12/09 12:58:39;;;;;;;31.33;16.27;;;1.50;99.90;;;;;;5042756;28;20090;-71
2022/12/09 13:01:24;;;;;;;28.23;15.45;;;1.50;99.90;;;;;;5045637;28;20045;-71